Time;durP1;ratioP1;P1;durP2;ratioP2;P2;SDS_P1;SDS_P2;PMS_P1;PMS_P2;Temp;Humidity;BMP_temperature;BMP_pressure;BME280_temperature;BME280_humidity;BME280_pressure;Samples;Min_cycle;Max_cycle;Signal;HPM_P1;HPM_P2
2023/04/17 00:01:37;;;;;;;28.00;17.70;;;11.50;99.90;;;;;;4170305;28;20037;-66
2023/04/17 00:03:37;;;;;;;27.85;16.25;;;11.50;99.90;;;;;;4155812;28;20033;-66
2023/04/17 00:05:38;;;;;;;25.00;17.05;;;11.50;99.90;;;;;;4158163;28;20125;-66
2023/04/17 00:07:40;;;;;;;34.00;20.27;;;11.50;99.90;;;;;;4170952;28;20044;-66
2023/04/17 00:09:40;;;;;;;25.85;17.48;;;11.40;99.90;;;;;;4165494;28;20026;-66
2023/04/17 00:11:41;;;;;;;27.65;15.07;;;11.40;99.90;;;;;;4168655;28;20040;-66
2023/04/17 00:13:42;;;;;;;24.45;16.70;;;11.40;99.90;;;;;;4168400;28;20029;-66
2023/04/17 00:15:43;;;;;;;32.45;20.05;;;11.40;99.90;;;;;;4170214;28;20033;-67
2023/04/17 00:17:44;;;;;;;29.67;17.13;;;11.50;99.90;;;;;;4168152;28;20046;-66
2023/04/17 00:19:44;;;;;;;25.13;16.52;;;11.40;99.90;;;;;;4166896;28;20041;-66
2023/04/17 00:21:45;;;;;;;27.60;17.00;;;11.50;99.90;;;;;;4169014;28;20025;-66
2023/04/17 00:23:46;;;;;;;23.35;15.13;;;11.50;99.90;;;;;;4175246;28;20117;-66
2023/04/17 00:25:46;;;;;;;23.42;15.77;;;11.40;99.90;;;;;;4164674;28;20044;-66
2023/04/17 00:27:48;;;;;;;31.77;19.10;;;11.50;99.90;;;;;;4168744;28;20033;-66
2023/04/17 00:29:48;;;;;;;24.00;16.00;;;11.50;99.90;;;;;;4172600;28;20044;-66
2023/04/17 00:31:49;;;;;;;22.83;15.30;;;11.50;99.90;;;;;;4169933;28;20060;-66
2023/04/17 00:33:49;;;;;;;23.02;15.13;;;11.50;99.90;;;;;;4155928;28;20037;-66
2023/04/17 00:35:50;;;;;;;25.05;15.07;;;11.50;99.90;;;;;;4170148;28;20510;-66
2023/04/17 00:37:51;;;;;;;22.85;15.27;;;11.60;99.90;;;;;;4157455;28;20481;-66
2023/04/17 00:39:52;;;;;;;27.92;17.70;;;11.60;99.90;;;;;;4160448;28;20050;-67
2023/04/17 00:41:52;;;;;;;27.23;17.55;;;11.50;99.90;;;;;;4154834;28;20039;-67
2023/04/17 00:43:53;;;;;;;27.23;17.58;;;11.50;99.90;;;;;;4153490;28;20512;-66
2023/04/17 00:45:53;;;;;;;28.92;17.10;;;11.40;99.90;;;;;;4150030;28;20034;-66
2023/04/17 00:47:59;;;;;;;25.52;17.40;;;11.40;99.90;;;;;;4162029;28;20029;-66
2023/04/17 00:49:59;;;;;;;24.90;16.70;;;11.40;99.90;;;;;;4157080;28;20026;-65
2023/04/17 00:52:00;;;;;;;24.60;16.23;;;11.40;99.90;;;;;;4155319;28;20060;-66
2023/04/17 00:54:01;;;;;;;24.48;15.95;;;11.40;99.90;;;;;;4156473;28;20546;-66
2023/04/17 00:56:05;;;;;;;26.17;16.83;;;11.50;99.90;;;;;;4155681;28;20034;-66
2023/04/17 00:58:07;;;;;;;24.25;15.55;;;11.50;99.90;;;;;;4158470;28;20029;-65
2023/04/17 01:00:09;;;;;;;26.67;16.77;;;11.50;99.90;;;;;;4157976;28;20432;-66
2023/04/17 01:02:11;;;;;;;26.08;17.25;;;11.50;99.90;;;;;;4169855;28;20033;-67
2023/04/17 01:04:12;;;;;;;;;;;11.50;99.90;;;;;;4170676;28;20091;-66
2023/04/17 01:06:13;;;;;;;28.63;17.08;;;11.50;99.90;;;;;;4167522;28;20355;-67
2023/04/17 01:08:14;;;;;;;36.67;20.45;;;11.50;99.90;;;;;;4158313;28;20112;-66
2023/04/17 01:10:15;;;;;;;29.58;18.20;;;11.40;99.90;;;;;;4160401;28;20406;-66
2023/04/17 01:12:20;;;;;;;32.25;19.77;;;11.40;99.90;;;;;;4160808;28;20045;-66
2023/04/17 01:14:21;;;;;;;26.65;17.63;;;11.30;99.90;;;;;;4172287;28;20029;-66
2023/04/17 01:16:22;;;;;;;30.05;18.17;;;11.30;99.90;;;;;;4169309;28;20029;-66
2023/04/17 01:18:22;;;;;;;26.90;17.95;;;11.30;99.90;;;;;;4170300;28;20057;-66
2023/04/17 01:20:30;;;;;;;31.73;19.23;;;11.30;99.90;;;;;;4169073;28;20038;-66
2023/04/17 01:22:30;;;;;;;31.75;19.13;;;11.30;99.90;;;;;;4165355;28;20361;-66
2023/04/17 01:24:31;;;;;;;27.88;18.17;;;11.30;99.90;;;;;;4169158;28;20079;-66
2023/04/17 01:26:32;;;;;;;27.52;17.27;;;11.30;99.90;;;;;;4168978;28;20029;-65
2023/04/17 01:28:33;;;;;;;26.75;17.50;;;11.30;99.90;;;;;;4168494;28;20117;-66
2023/04/17 01:30:34;;;;;;;32.63;19.25;;;11.30;99.90;;;;;;4168784;28;20033;-66
2023/04/17 01:32:34;;;;;;;29.50;18.73;;;11.30;99.90;;;;;;4174884;28;20064;-65
2023/04/17 01:34:35;;;;;;;27.90;18.60;;;11.30;99.90;;;;;;4165212;28;20022;-66
2023/04/17 01:36:35;;;;;;;27.15;18.42;;;11.30;99.90;;;;;;4167288;28;20033;-66
2023/04/17 01:38:36;;;;;;;29.63;20.02;;;11.30;99.90;;;;;;4167050;28;20530;-66
2023/04/17 01:40:37;;;;;;;31.95;19.15;;;11.30;99.90;;;;;;4169041;28;20041;-66
2023/04/17 01:42:37;;;;;;;26.08;17.92;;;11.30;99.90;;;;;;4172868;28;20029;-66
2023/04/17 01:44:38;;;;;;;34.33;20.23;;;11.30;99.90;;;;;;4169261;28;20567;-65
2023/04/17 01:46:39;;;;;;;29.73;21.23;;;11.30;99.90;;;;;;4165814;28;20115;-66
2023/04/17 01:48:39;;;;;;;35.53;21.85;;;11.30;99.90;;;;;;4170015;28;20028;-67
2023/04/17 01:50:40;;;;;;;28.58;19.00;;;11.20;99.90;;;;;;4173216;28;20033;-66
2023/04/17 01:52:40;;;;;;;32.53;20.80;;;11.20;99.90;;;;;;4168564;28;20028;-66
2023/04/17 01:54:41;;;;;;;33.88;19.75;;;11.20;99.90;;;;;;4170232;28;20036;-66
2023/04/17 01:56:41;;;;;;;28.65;18.73;;;11.20;99.90;;;;;;4170379;28;20037;-66
2023/04/17 01:58:42;;;;;;;34.85;21.92;;;11.20;99.90;;;;;;4169588;28;20033;-66
2023/04/17 02:00:47;;;;;;;29.65;19.67;;;11.20;99.90;;;;;;4169486;28;20029;-66
2023/04/17 02:02:47;;;;;;;34.55;20.45;;;11.30;99.90;;;;;;4167432;28;20078;-66
2023/04/17 02:04:48;;;;;;;33.63;21.35;;;11.20;99.90;;;;;;4166422;28;20090;-66
2023/04/17 02:06:48;;;;;;;36.08;22.77;;;11.20;99.90;;;;;;4153357;28;20026;-68
2023/04/17 02:08:49;;;;;;;29.90;18.65;;;11.20;99.90;;;;;;4150858;28;20432;-67
2023/04/17 02:10:49;;;;;;;29.42;19.02;;;11.20;99.90;;;;;;4156769;28;20466;-66
2023/04/17 02:12:50;;;;;;;34.88;20.15;;;11.20;99.90;;;;;;4164125;28;20036;-66
2023/04/17 02:14:50;;;;;;;33.88;20.33;;;11.20;99.90;;;;;;4166272;28;20029;-66
2023/04/17 02:16:52;;;;;;;28.65;19.15;;;11.20;99.90;;;;;;4167975;28;20036;-67
2023/04/17 02:18:54;;;;;;;29.17;19.73;;;11.30;99.90;;;;;;4169936;28;20034;-66
2023/04/17 02:20:54;;;;;;;30.17;18.92;;;11.30;99.90;;;;;;4169602;28;20497;-66
2023/04/17 02:22:55;;;;;;;37.40;23.00;;;11.30;99.90;;;;;;4169214;28;20037;-66
2023/04/17 02:24:55;;;;;;;40.13;23.67;;;11.20;99.90;;;;;;4170968;28;20500;-66
2023/04/17 02:26:56;;;;;;;29.40;20.23;;;11.20;99.90;;;;;;4166141;28;20044;-65
2023/04/17 02:28:56;;;;;;;34.08;20.50;;;11.20;99.90;;;;;;4166302;28;20033;-66
2023/04/17 02:30:58;;;;;;;33.38;20.55;;;11.20;99.90;;;;;;4168827;28;20422;-66
2023/04/17 02:32:58;;;;;;;31.65;20.90;;;11.20;99.90;;;;;;4167743;28;20505;-66
2023/04/17 02:34:59;;;;;;;36.97;20.70;;;11.20;99.90;;;;;;4166845;28;21129;-65
2023/04/17 02:37:00;;;;;;;34.55;20.48;;;11.20;99.90;;;;;;4165817;28;20056;-66
2023/04/17 02:39:00;;;;;;;35.20;22.00;;;11.20;99.90;;;;;;4171195;28;20101;-65
2023/04/17 02:41:01;;;;;;;37.50;21.50;;;11.20;99.90;;;;;;4166980;28;20057;-64
2023/04/17 02:43:01;;;;;;;33.00;20.90;;;11.20;99.90;;;;;;4163307;28;20477;-65
2023/04/17 02:45:03;;;;;;;41.03;23.08;;;11.20;99.90;;;;;;4170707;28;20412;-67
2023/04/17 02:47:03;;;;;;;37.22;23.90;;;11.10;99.90;;;;;;4166928;28;20029;-66
2023/04/17 02:49:04;;;;;;;38.97;22.67;;;11.10;99.90;;;;;;4169762;28;20376;-66
2023/04/17 02:51:05;;;;;;;40.33;23.88;;;11.10;99.90;;;;;;4167052;28;20083;-66
2023/04/17 02:53:05;;;;;;;36.38;22.42;;;11.10;99.90;;;;;;4164167;28;20108;-66
2023/04/17 02:55:06;;;;;;;42.30;24.98;;;11.10;99.90;;;;;;4173298;28;20037;-66
2023/04/17 02:57:07;;;;;;;35.80;22.02;;;11.10;99.90;;;;;;4170114;28;20040;-66
2023/04/17 02:59:07;;;;;;;35.78;22.40;;;11.10;99.90;;;;;;4169394;28;20029;-66
2023/04/17 03:01:08;;;;;;;35.88;22.88;;;11.10;99.90;;;;;;4169680;28;20619;-66
2023/04/17 03:03:08;;;;;;;35.00;20.90;;;11.10;99.90;;;;;;4166604;28;20500;-66
2023/04/17 03:05:10;;;;;;;32.10;21.80;;;11.10;99.90;;;;;;4170346;28;20044;-67
2023/04/17 03:07:12;;;;;;;30.40;19.97;;;11.10;99.90;;;;;;4172057;28;20033;-67
2023/04/17 03:09:14;;;;;;;40.88;24.67;;;11.20;99.90;;;;;;4169335;28;20358;-66
2023/04/17 03:11:15;;;;;;;38.10;24.15;;;11.20;99.90;;;;;;4167548;28;20033;-66
2023/04/17 03:13:16;;;;;;;42.90;25.35;;;11.20;99.90;;;;;;4168905;28;20033;-65
2023/04/17 03:15:16;;;;;;;40.25;24.05;;;11.10;99.90;;;;;;4168459;28;20167;-66
2023/04/17 03:17:19;;;;;;;37.30;23.05;;;11.10;99.90;;;;;;4174361;28;20068;-66
2023/04/17 03:19:19;;;;;;;;;;;11.10;99.90;;;;;;4168518;28;20112;-66
2023/04/17 03:21:20;;;;;;;41.97;24.38;;;11.10;99.90;;;;;;4167041;28;20003;-65
2023/04/17 03:23:20;;;;;;;45.80;26.27;;;11.10;99.90;;;;;;4170273;28;20124;-67
2023/04/17 03:25:21;;;;;;;40.72;24.80;;;11.00;99.90;;;;;;4173610;28;20045;-66
2023/04/17 03:27:23;;;;;;;51.33;30.33;;;11.00;99.90;;;;;;4170117;28;20021;-66
2023/04/17 03:29:24;;;;;;;41.78;26.52;;;10.90;99.90;;;;;;4174856;28;20025;-67
2023/04/17 03:31:26;;;;;;;37.90;25.27;;;11.00;99.90;;;;;;4171477;28;20483;-66
2023/04/17 03:33:27;;;;;;;48.75;28.63;;;10.90;99.90;;;;;;4168294;28;20043;-66
2023/04/17 03:35:27;;;;;;;39.65;24.60;;;10.90;99.90;;;;;;4172433;28;20541;-66
2023/04/17 03:37:28;;;;;;;38.00;23.48;;;10.90;99.90;;;;;;4170868;28;20048;-66
2023/04/17 03:39:29;;;;;;;39.00;24.33;;;11.00;99.90;;;;;;4173255;28;20087;-66
2023/04/17 03:41:30;;;;;;;43.00;25.92;;;10.90;99.90;;;;;;4168578;28;20029;-66
2023/04/17 03:43:30;;;;;;;43.10;24.67;;;10.90;99.90;;;;;;4166827;28;20041;-66
2023/04/17 03:45:31;;;;;;;43.92;26.15;;;10.90;99.90;;;;;;4173501;28;20029;-66
2023/04/17 03:47:31;;;;;;;43.55;25.13;;;10.90;99.90;;;;;;4168218;28;20029;-65
2023/04/17 03:49:32;;;;;;;50.47;26.90;;;10.90;99.90;;;;;;4171138;28;20045;-65
2023/04/17 03:51:33;;;;;;;40.42;24.83;;;10.90;99.90;;;;;;4170547;28;20067;-66
2023/04/17 03:53:33;;;;;;;47.67;26.90;;;10.90;99.90;;;;;;4170342;28;20082;-66
2023/04/17 03:55:34;;;;;;;51.22;29.35;;;10.90;99.90;;;;;;4175146;28;20037;-65
2023/04/17 03:57:34;;;;;;;40.88;25.38;;;10.90;99.90;;;;;;4170006;28;20392;-66
2023/04/17 03:59:35;;;;;;;42.10;25.98;;;10.90;99.90;;;;;;4176536;28;20037;-66
2023/04/17 04:01:37;;;;;;;44.95;27.92;;;10.90;99.90;;;;;;4169844;28;20040;-65
2023/04/17 04:03:38;;;;;;;40.58;26.13;;;10.80;99.90;;;;;;4174303;28;20032;-66
2023/04/17 04:05:39;;;;;;;44.00;26.20;;;10.90;99.90;;;;;;4169688;28;20456;-66
2023/04/17 04:07:39;;;;;;;44.10;27.25;;;10.90;99.90;;;;;;4172698;28;20056;-66
2023/04/17 04:09:40;;;;;;;52.47;29.85;;;10.90;99.90;;;;;;4169472;28;20099;-66
2023/04/17 04:11:41;;;;;;;49.30;26.65;;;10.90;99.90;;;;;;4163543;28;20029;-66
2023/04/17 04:13:41;;;;;;;39.97;25.08;;;10.90;99.90;;;;;;4171376;28;20052;-67
2023/04/17 04:15:42;;;;;;;45.33;26.13;;;10.90;99.90;;;;;;4169419;28;20397;-67
2023/04/17 04:17:43;;;;;;;41.42;26.50;;;10.90;99.90;;;;;;4167960;28;20479;-65
2023/04/17 04:19:43;;;;;;;43.05;25.05;;;10.90;99.90;;;;;;4169231;28;20378;-66
2023/04/17 04:21:44;;;;;;;45.42;25.70;;;10.90;99.90;;;;;;4165551;28;20042;-66
2023/04/17 04:23:44;;;;;;;44.85;26.35;;;10.90;99.90;;;;;;4172926;28;20104;-66
2023/04/17 04:25:45;;;;;;;42.72;25.80;;;11.00;99.90;;;;;;4171191;28;20042;-66
2023/04/17 04:27:48;;;;;;;37.30;24.42;;;10.90;99.90;;;;;;4171188;28;20037;-66
2023/04/17 04:29:49;;;;;;;43.53;26.88;;;10.90;99.90;;;;;;4167628;28;20135;-65
2023/04/17 04:31:49;;;;;;;42.90;25.60;;;10.90;99.90;;;;;;4174490;28;20044;-66
2023/04/17 04:33:53;;;;;;;41.45;24.25;;;10.90;99.90;;;;;;4168456;28;20037;-66
2023/04/17 04:35:59;;;;;;;41.63;24.17;;;11.00;99.90;;;;;;4172958;28;20036;-66
2023/04/17 04:38:00;;;;;;;42.38;27.08;;;11.00;99.90;;;;;;4168852;28;20095;-66
2023/04/17 04:40:09;;;;;;;42.45;26.30;;;10.90;99.90;;;;;;4168688;28;20443;-65
2023/04/17 04:42:10;;;;;;;39.35;24.15;;;11.00;99.90;;;;;;4169036;28;20040;-66
2023/04/17 04:44:10;;;;;;;37.03;23.58;;;10.90;99.90;;;;;;4169001;28;20028;-65
2023/04/17 04:46:11;;;;;;;42.85;25.88;;;11.00;99.90;;;;;;4166391;28;20037;-66
2023/04/17 04:48:11;;;;;;;39.15;25.48;;;11.00;99.90;;;;;;4173785;28;20531;-66
2023/04/17 04:50:12;;;;;;;38.35;24.75;;;10.90;99.90;;;;;;4173244;28;20025;-66
2023/04/17 04:52:12;;;;;;;39.53;24.45;;;10.90;99.90;;;;;;4170479;28;20136;-66
2023/04/17 04:54:13;;;;;;;37.80;23.52;;;10.90;99.90;;;;;;4167590;28;22342;-66
2023/04/17 04:56:14;;;;;;;42.83;26.30;;;10.90;99.90;;;;;;4171705;28;20116;-64
2023/04/17 04:58:15;;;;;;;38.90;24.20;;;10.90;99.90;;;;;;4165835;28;20550;-65
2023/04/17 05:00:16;;;;;;;36.63;23.42;;;10.90;99.90;;;;;;4169276;28;20033;-65
2023/04/17 05:02:17;;;;;;;34.70;22.60;;;11.00;99.90;;;;;;4171338;28;20408;-66
2023/04/17 05:04:18;;;;;;;44.75;26.55;;;11.00;99.90;;;;;;4174777;28;20071;-66
2023/04/17 05:06:18;;;;;;;43.20;26.27;;;11.00;99.90;;;;;;4173574;28;20017;-66
2023/04/17 05:08:20;;;;;;;49.75;25.88;;;11.00;99.90;;;;;;4172973;28;20503;-66
2023/04/17 05:10:20;;;;;;;39.65;24.77;;;10.90;99.90;;;;;;4173939;28;20040;-66
2023/04/17 05:12:21;;;;;;;41.88;25.83;;;10.90;99.90;;;;;;4168577;28;20048;-66
2023/04/17 05:14:22;;;;;;;42.83;25.40;;;10.90;99.90;;;;;;4165535;28;20475;-66
2023/04/17 05:16:22;;;;;;;39.38;25.00;;;10.90;99.90;;;;;;4167009;28;20566;-66
2023/04/17 05:18:23;;;;;;;40.13;23.98;;;10.90;99.90;;;;;;4164467;28;20025;-65
2023/04/17 05:20:25;;;;;;;42.33;25.75;;;10.90;99.90;;;;;;4168803;28;20871;-65
2023/04/17 05:22:26;;;;;;;45.53;26.73;;;10.90;99.90;;;;;;4166677;28;20029;-66
2023/04/17 05:24:26;;;;;;;43.33;25.95;;;10.90;99.90;;;;;;4167823;28;20392;-65
2023/04/17 05:26:27;;;;;;;47.05;27.63;;;10.90;99.90;;;;;;4167750;28;20036;-64
2023/04/17 05:28:28;;;;;;;43.28;25.92;;;10.90;99.90;;;;;;4167065;28;20056;-65
2023/04/17 05:30:29;;;;;;;42.60;26.95;;;10.90;99.90;;;;;;4166702;28;20055;-66
2023/04/17 05:32:30;;;;;;;40.40;25.75;;;10.90;99.90;;;;;;4166761;28;20053;-66
2023/04/17 05:34:30;;;;;;;41.38;25.38;;;10.90;99.90;;;;;;4167349;28;20029;-65
2023/04/17 05:36:32;;;;;;;41.08;24.65;;;10.90;99.90;;;;;;4164774;28;20029;-66
2023/04/17 05:38:32;;;;;;;40.67;24.60;;;10.90;99.90;;;;;;4166892;28;20101;-64
2023/04/17 05:40:33;;;;;;;39.45;24.33;;;11.00;99.90;;;;;;4167089;28;20025;-65
2023/04/17 05:42:34;;;;;;;43.85;26.88;;;11.00;99.90;;;;;;4166077;28;20087;-66
2023/04/17 05:44:34;;;;;;;36.80;24.35;;;11.00;99.90;;;;;;4167124;28;20034;-65
2023/04/17 05:46:35;;;;;;;37.03;23.35;;;11.00;99.90;;;;;;4166184;28;20033;-65
2023/04/17 05:48:36;;;;;;;42.28;25.80;;;11.00;99.90;;;;;;4163260;28;20119;-65
2023/04/17 05:50:36;;;;;;;48.53;28.92;;;11.00;99.90;;;;;;4165746;28;20037;-65
2023/04/17 05:52:38;;;;;;;46.72;28.52;;;11.00;99.90;;;;;;4162798;28;20030;-65
2023/04/17 05:54:38;;;;;;;45.05;27.05;;;11.00;99.90;;;;;;4165761;28;20036;-65
2023/04/17 05:56:39;;;;;;;42.08;24.95;;;11.00;99.90;;;;;;4163104;28;20463;-65
2023/04/17 05:58:39;;;;;;;37.42;24.13;;;11.00;99.90;;;;;;4162962;28;20051;-65
2023/04/17 06:00:41;;;;;;;40.53;25.42;;;11.00;99.90;;;;;;4164665;28;20037;-65
2023/04/17 06:02:42;;;;;;;45.78;25.50;;;11.10;99.90;;;;;;4167305;28;20022;-65
2023/04/17 06:04:43;;;;;;;42.38;24.90;;;11.00;99.90;;;;;;4165416;28;20033;-65
2023/04/17 06:06:43;;;;;;;40.47;24.88;;;11.10;99.90;;;;;;4162115;28;20052;-66
2023/04/17 06:08:44;;;;;;;47.40;28.35;;;11.10;99.90;;;;;;4162627;28;20029;-66
2023/04/17 06:10:45;;;;;;;41.67;25.55;;;11.10;99.90;;;;;;4161701;28;20026;-66
2023/04/17 06:12:46;;;;;;;40.55;25.05;;;11.10;99.90;;;;;;4161395;28;20129;-67
2023/04/17 06:14:46;;;;;;;48.60;29.33;;;11.10;99.90;;;;;;4163557;28;20496;-65
2023/04/17 06:16:47;;;;;;;44.65;28.50;;;11.10;99.90;;;;;;4166068;28;20090;-66
2023/04/17 06:18:48;;;;;;;42.10;26.13;;;11.10;99.90;;;;;;4164869;28;20033;-64
2023/04/17 06:20:48;;;;;;;39.65;24.50;;;11.10;99.90;;;;;;4166356;28;20488;-66
2023/04/17 06:22:49;;;;;;;39.40;25.25;;;11.10;99.90;;;;;;4163392;28;20157;-65
2023/04/17 06:24:50;;;;;;;41.05;25.55;;;11.20;99.90;;;;;;4165516;28;20513;-66
2023/04/17 06:26:50;;;;;;;40.83;25.33;;;11.20;99.90;;;;;;4163873;28;20033;-66
2023/04/17 06:28:51;;;;;;;38.30;25.40;;;11.20;99.90;;;;;;4167534;28;20393;-66
2023/04/17 06:30:51;;;;;;;40.55;25.73;;;11.20;99.90;;;;;;4162453;28;20508;-65
2023/04/17 06:32:52;;;;;;;43.05;25.55;;;11.30;99.90;;;;;;4167744;28;20037;-66
2023/04/17 06:34:53;;;;;;;41.65;26.95;;;11.30;99.90;;;;;;4167986;28;20108;-65
2023/04/17 06:36:53;;;;;;;40.83;26.33;;;11.20;99.90;;;;;;4166818;28;20045;-65
2023/04/17 06:38:54;;;;;;;41.58;26.42;;;11.30;99.90;;;;;;4165347;28;20053;-65
2023/04/17 06:40:55;;;;;;;42.78;26.27;;;11.30;99.90;;;;;;4161406;28;20471;-65
2023/04/17 06:42:55;;;;;;;38.85;26.15;;;11.30;99.90;;;;;;4163829;28;20037;-65
2023/04/17 06:44:56;;;;;;;41.50;26.77;;;11.30;99.90;;;;;;4167199;28;20061;-66
2023/04/17 06:46:57;;;;;;;38.15;24.55;;;11.30;99.90;;;;;;4165432;28;20045;-65
2023/04/17 06:48:58;;;;;;;42.92;27.05;;;11.30;99.90;;;;;;4166219;28;20033;-65
2023/04/17 06:50:59;;;;;;;42.85;27.17;;;11.40;99.90;;;;;;4164727;28;20160;-65
2023/04/17 06:52:59;;;;;;;43.28;27.25;;;11.40;99.90;;;;;;4163888;28;20353;-65
2023/04/17 06:55:01;;;;;;;42.03;27.50;;;11.40;99.90;;;;;;4166428;28;20033;-65
2023/04/17 06:57:05;;;;;;;41.75;26.95;;;11.40;99.90;;;;;;4163227;28;20468;-65
2023/04/17 06:59:06;;;;;;;44.85;27.85;;;11.40;99.90;;;;;;4164098;28;20061;-64
2023/04/17 07:01:06;;;;;;;44.67;28.33;;;11.30;99.90;;;;;;4169003;28;20124;-65
2023/04/17 07:03:07;;;;;;;45.15;27.55;;;11.30;99.90;;;;;;4173387;28;20808;-65
2023/04/17 07:05:08;;;;;;;40.47;27.33;;;11.40;99.90;;;;;;4164941;28;20041;-66
2023/04/17 07:07:08;;;;;;;38.45;26.02;;;11.30;99.90;;;;;;4168785;28;20048;-65
2023/04/17 07:09:09;;;;;;;47.53;28.83;;;11.40;99.90;;;;;;4171320;28;20432;-65
2023/04/17 07:11:10;;;;;;;42.55;26.52;;;11.40;99.90;;;;;;4166813;28;20119;-67
2023/04/17 07:13:11;;;;;;;41.80;26.25;;;11.40;99.90;;;;;;4167495;28;20025;-66
2023/04/17 07:15:11;;;;;;;43.13;28.17;;;11.40;99.90;;;;;;4167000;28;20033;-66
2023/04/17 07:17:12;;;;;;;37.42;24.75;;;11.40;99.90;;;;;;4170756;28;20405;-66
2023/04/17 07:19:12;;;;;;;43.35;27.52;;;11.40;99.90;;;;;;4168830;28;20026;-66
2023/04/17 07:21:13;;;;;;;43.63;27.33;;;11.50;99.90;;;;;;4170388;28;20028;-66
2023/04/17 07:23:14;;;;;;;42.72;26.75;;;11.50;99.90;;;;;;4170482;28;20026;-66
2023/04/17 07:25:15;;;;;;;36.78;24.60;;;11.50;99.90;;;;;;4169494;28;20041;-67
2023/04/17 07:27:16;;;;;;;38.45;25.40;;;11.50;99.90;;;;;;4170431;28;20033;-66
2023/04/17 07:29:16;;;;;;;40.47;26.27;;;11.60;99.90;;;;;;4166424;28;20040;-66
2023/04/17 07:31:17;;;;;;;39.35;26.08;;;11.60;99.90;;;;;;4170507;28;20033;-66
2023/04/17 07:33:17;;;;;;;37.13;25.98;;;11.60;99.90;;;;;;4168759;28;20095;-66
2023/04/17 07:35:18;;;;;;;38.40;26.02;;;11.60;99.90;;;;;;4167012;28;20038;-66
2023/04/17 07:37:19;;;;;;;40.25;25.38;;;11.60;99.90;;;;;;4168465;28;20477;-66
2023/04/17 07:39:19;;;;;;;39.80;25.30;;;11.60;99.90;;;;;;4170393;28;20037;-66
2023/04/17 07:41:20;;;;;;;40.38;26.15;;;11.60;99.90;;;;;;4165794;28;20111;-66
2023/04/17 07:43:20;;;;;;;43.55;27.80;;;11.70;99.90;;;;;;4167891;28;20038;-66
2023/04/17 07:45:25;;;;;;;41.90;27.05;;;11.60;99.90;;;;;;4170959;28;21269;-66
2023/04/17 07:47:26;;;;;;;41.60;25.60;;;11.50;99.90;;;;;;4170110;28;20040;-66
2023/04/17 07:49:26;;;;;;;33.88;23.25;;;11.60;99.90;;;;;;4165100;28;20029;-66
2023/04/17 07:51:28;;;;;;;41.80;27.55;;;11.60;99.90;;;;;;4164188;28;20033;-66
2023/04/17 07:53:29;;;;;;;40.00;27.20;;;11.70;99.90;;;;;;4168701;28;20170;-65
2023/04/17 07:55:29;;;;;;;39.85;25.77;;;11.60;99.90;;;;;;4170856;28;20064;-65
2023/04/17 07:57:31;;;;;;;41.28;26.73;;;11.60;99.90;;;;;;4166145;28;20041;-65
2023/04/17 07:59:32;;;;;;;37.08;24.23;;;11.60;99.90;;;;;;4167634;28;20029;-66
2023/04/17 08:01:32;;;;;;;37.80;24.23;;;11.60;99.90;;;;;;4167332;28;20033;-65
2023/04/17 08:03:33;;;;;;;38.85;24.40;;;11.60;99.90;;;;;;4169353;28;20029;-65
2023/04/17 08:05:33;;;;;;;37.35;23.92;;;11.70;99.90;;;;;;4169079;28;20033;-65
2023/04/17 08:07:35;;;;;;;40.00;26.05;;;11.80;99.90;;;;;;4171679;28;20040;-65
2023/04/17 08:09:36;;;;;;;33.00;22.85;;;11.70;99.90;;;;;;4170349;28;20553;-65
2023/04/17 08:11:37;;;;;;;36.55;24.30;;;11.80;99.90;;;;;;4163686;28;20116;-65
2023/04/17 08:13:38;;;;;;;40.95;25.02;;;11.80;99.90;;;;;;4168379;28;20092;-66
2023/04/17 08:15:39;;;;;;;34.78;22.85;;;11.80;99.90;;;;;;4167357;28;20483;-66
2023/04/17 08:17:40;;;;;;;33.85;23.33;;;11.70;99.90;;;;;;4168792;28;20519;-65
2023/04/17 08:19:40;;;;;;;32.95;23.02;;;11.90;99.90;;;;;;4168237;28;20065;-66
2023/04/17 08:21:41;;;;;;;36.25;23.23;;;11.90;99.90;;;;;;4165140;28;20033;-67
2023/04/17 08:23:41;;;;;;;34.60;24.02;;;11.90;99.90;;;;;;4166532;28;20056;-66
2023/04/17 08:25:43;;;;;;;33.42;23.05;;;11.90;99.90;;;;;;4163886;28;20030;-66
2023/04/17 08:27:44;;;;;;;37.13;24.33;;;11.90;99.90;;;;;;4168809;28;20029;-66
2023/04/17 08:29:44;;;;;;;40.83;25.98;;;11.90;99.90;;;;;;4169348;28;20511;-66
2023/04/17 08:31:45;;;;;;;37.30;24.10;;;11.80;99.90;;;;;;4164008;28;20057;-66
2023/04/17 08:33:46;;;;;;;35.47;24.60;;;11.80;99.90;;;;;;4167164;28;20025;-67
2023/04/17 08:35:46;;;;;;;40.30;26.40;;;11.70;99.90;;;;;;4165991;28;20040;-66
2023/04/17 08:37:47;;;;;;;44.30;26.80;;;11.60;99.90;;;;;;4168062;28;20033;-66
2023/04/17 08:39:51;;;;;;;34.85;22.70;;;11.70;99.90;;;;;;4170899;28;20053;-67
2023/04/17 08:41:59;;;;;;;32.80;21.45;;;11.80;99.90;;;;;;4166879;28;20029;-66
2023/04/17 08:44:02;;;;;;;38.67;24.88;;;11.90;99.90;;;;;;4170695;28;20111;-66
2023/04/17 08:46:03;;;;;;;37.25;24.58;;;11.80;99.90;;;;;;4166925;28;20063;-65
2023/04/17 08:48:05;;;;;;;43.40;23.90;;;11.90;99.90;;;;;;4167066;28;20029;-66
2023/04/17 08:50:10;;;;;;;31.10;21.97;;;11.90;99.90;;;;;;4168080;28;20036;-67
2023/04/17 08:52:11;;;;;;;33.25;23.05;;;12.00;99.90;;;;;;4169089;28;20288;-65
2023/04/17 08:54:11;;;;;;;34.63;23.50;;;12.00;99.90;;;;;;4166601;28;20040;-68
2023/04/17 08:56:12;;;;;;;39.03;23.55;;;12.10;99.90;;;;;;4169001;28;20037;-66
2023/04/17 08:58:13;;;;;;;38.05;24.63;;;12.10;99.90;;;;;;4164562;28;20045;-64
2023/04/17 09:00:26;;;;;;;36.60;24.95;;;12.10;99.90;;;;;;4166991;28;20033;-65
2023/04/17 09:02:27;;;;;;;35.30;22.63;;;12.10;99.90;;;;;;4168342;28;20392;-65
2023/04/17 09:04:36;;;;;;;33.22;22.77;;;12.20;99.90;;;;;;4168264;28;20121;-66
2023/04/17 09:06:53;;;;;;;33.25;22.95;;;12.20;99.90;;;;;;4163482;28;20044;-65
2023/04/17 09:08:56;;;;;;;30.77;21.60;;;12.30;99.90;;;;;;4166851;28;20072;-65
2023/04/17 09:10:57;;;;;;;31.27;21.65;;;12.50;99.90;;;;;;4163274;28;20132;-65
2023/04/17 09:12:59;;;;;;;33.50;21.70;;;12.50;99.90;;;;;;4166707;28;20041;-65
2023/04/17 09:15:14;;;;;;;32.92;21.88;;;12.60;99.90;;;;;;4167416;28;20033;-65
2023/04/17 09:17:16;;;;;;;33.88;22.08;;;12.70;99.90;;;;;;4168964;28;20384;-65
2023/04/17 09:19:17;;;;;;;29.15;20.48;;;12.80;99.90;;;;;;4171942;28;20029;-66
2023/04/17 09:21:18;;;;;;;30.25;19.95;;;13.00;99.90;;;;;;4166321;28;20084;-66
2023/04/17 09:23:19;;;;;;;32.65;21.35;;;13.00;99.90;;;;;;4166907;28;20036;-66
2023/04/17 09:25:22;;;;;;;39.08;24.25;;;13.20;99.90;;;;;;4168729;28;20033;-66
2023/04/17 09:27:24;;;;;;;30.55;21.35;;;13.20;99.90;;;;;;4167813;28;20501;-66
2023/04/17 09:29:24;;;;;;;27.17;18.52;;;13.30;99.90;;;;;;4165816;28;20033;-66
2023/04/17 09:31:26;;;;;;;27.95;19.00;;;13.40;99.90;;;;;;4163693;28;20056;-66
2023/04/17 09:33:27;;;;;;;32.88;22.63;;;13.60;99.90;;;;;;4168797;28;20040;-65
2023/04/17 09:35:28;;;;;;;34.17;22.98;;;13.60;99.90;;;;;;4167913;28;20484;-66
2023/04/17 09:37:47;;;;;;;29.92;21.00;;;13.40;99.90;;;;;;4168963;28;20423;-65
2023/04/17 09:39:59;;;;;;;28.00;19.35;;;13.50;99.90;;;;;;4169086;28;20049;-66
2023/04/17 09:42:05;;;;;;;24.65;18.30;;;13.70;99.90;;;;;;4167398;28;20078;-66
2023/04/17 09:44:05;;;;;;;26.08;18.92;;;13.80;99.90;;;;;;4167135;28;20040;-66
2023/04/17 09:46:06;;;;;;;26.27;17.65;;;13.80;99.90;;;;;;4171910;28;20028;-66
2023/04/17 09:48:08;;;;;;;23.75;18.15;;;13.90;99.90;;;;;;4167527;28;20052;-65
2023/04/17 09:50:09;;;;;;;26.98;18.33;;;14.10;99.90;;;;;;4161403;28;20495;-67
2023/04/17 09:52:11;;;;;;;29.27;19.35;;;14.10;99.90;;;;;;4168122;28;20032;-66
2023/04/17 09:54:14;;;;;;;28.98;19.55;;;14.00;99.90;;;;;;4166801;28;20116;-66
2023/04/17 09:56:15;;;;;;;27.30;17.90;;;13.90;99.90;;;;;;4167689;28;20046;-64
2023/04/17 09:58:17;;;;;;;24.63;17.08;;;13.90;99.90;;;;;;4168714;28;20052;-66
2023/04/17 10:00:20;;;;;;;26.90;17.42;;;14.00;99.90;;;;;;4164102;28;20041;-66
2023/04/17 10:02:21;;;;;;;22.17;16.27;;;14.00;99.90;;;;;;4166735;28;20029;-66
2023/04/17 10:04:22;;;;;;;25.58;16.95;;;14.10;99.90;;;;;;4164652;28;20037;-66
2023/04/17 10:06:23;;;;;;;28.60;18.40;;;14.10;99.90;;;;;;4168136;28;20485;-66
2023/04/17 10:08:23;;;;;;;25.58;16.35;;;14.20;99.90;;;;;;4169538;28;20567;-66
2023/04/17 10:10:31;;;;;;;22.38;14.40;;;14.30;99.90;;;;;;4167138;28;20034;-66
2023/04/17 10:12:31;;;;;;;19.20;13.63;;;14.40;99.90;;;;;;4168338;28;20041;-65
2023/04/17 10:14:36;;;;;;;21.30;14.88;;;14.50;99.90;;;;;;4166167;28;20029;-65
2023/04/17 10:16:38;;;;;;;19.00;13.75;;;14.70;99.90;;;;;;4164305;28;20447;-66